createdAt,value
2023-01-17T06:06:35.755Z,4.44
2023-01-17T06:09:03.724Z,4.45
2023-01-17T06:11:31.691Z,4.45
2023-01-17T06:13:59.404Z,4.45
2023-01-17T06:33:51.748Z,4.31
2023-01-17T06:37:20.179Z,4.22
2023-01-17T06:53:31.210Z,4.26
2023-01-17T06:55:58.959Z,4.25
2023-01-17T06:58:27.282Z,4.24
2023-01-17T07:00:55.053Z,4.21
2023-01-17T07:03:25.813Z,4.26
2023-01-17T07:05:53.663Z,4.27
2023-01-17T07:08:21.513Z,4.24
2023-01-17T07:10:49.486Z,4.21
2023-01-17T07:13:17.198Z,4.24
2023-01-17T07:15:45.138Z,4.30
2023-01-17T07:18:12.766Z,4.29
2023-01-17T07:20:41.560Z,4.25
2023-01-17T07:23:09.648Z,4.31
2023-01-17T07:25:37.484Z,4.25
2023-01-17T07:32:31.474Z,4.25
2023-01-17T07:34:59.320Z,4.25
2023-01-17T07:37:27.036Z,4.23
2023-01-17T07:39:54.998Z,4.22
2023-01-17T07:42:24.372Z,4.24
2023-01-17T07:44:52.134Z,4.20
2023-01-17T07:47:20.358Z,4.20
2023-01-17T07:49:48.406Z,4.14
2023-01-17T07:52:18.139Z,4.14
2023-01-17T07:54:46.119Z,4.12
2023-01-17T07:57:13.991Z,4.07
2023-01-17T07:59:42.023Z,4.02
2023-01-17T08:02:20.961Z,4.05
2023-01-17T08:04:49.388Z,4.13
2023-01-17T08:07:17.229Z,4.16
2023-01-17T08:09:49.840Z,4.18
2023-01-17T08:12:18.152Z,4.20
2023-01-17T08:14:46.276Z,4.24
2023-01-17T08:17:17.123Z,4.20
2023-01-17T08:19:45.162Z,4.18
2023-01-17T08:22:12.868Z,4.14
2023-01-17T08:24:40.616Z,4.19
2023-01-17T08:27:09.276Z,4.23
2023-01-17T08:29:37.010Z,4.27
2023-01-17T08:32:04.959Z,4.25
2023-01-17T08:34:33.760Z,4.27
2023-01-17T08:37:01.492Z,4.30
2023-01-17T08:39:29.203Z,4.30
2023-01-17T08:41:57.660Z,4.27
2023-01-17T08:44:25.409Z,4.23
2023-01-17T08:46:53.327Z,4.26
2023-01-17T08:49:21.160Z,4.24
2023-01-17T08:51:48.910Z,4.21
2023-01-17T08:54:17.435Z,4.26
2023-01-17T08:56:47.238Z,4.27
2023-01-17T08:59:15.177Z,4.27
2023-01-17T09:01:46.168Z,4.35
2023-01-17T09:04:16.996Z,4.37
2023-01-17T09:06:48.612Z,4.42
2023-01-17T09:09:17.813Z,4.39
2023-01-17T09:11:45.897Z,4.43
2023-01-17T09:14:13.730Z,4.44
2023-01-17T09:16:41.715Z,4.46
2023-01-17T09:19:10.007Z,4.45
2023-01-17T09:21:37.871Z,4.45
2023-01-17T09:24:05.931Z,4.49
2023-01-17T09:26:34.010Z,4.49
2023-01-17T09:29:02.098Z,4.52
2023-01-17T09:31:30.411Z,4.51
2023-01-17T09:33:59.343Z,4.49
2023-01-17T09:36:34.265Z,4.56
2023-01-17T09:39:04.009Z,4.50
2023-01-17T09:41:50.568Z,4.49
2023-01-17T09:44:52.013Z,4.47
2023-01-17T09:47:35.982Z,4.42
2023-01-17T09:50:15.798Z,4.60
2023-01-17T09:52:44.331Z,4.77
2023-01-17T09:55:16.754Z,4.79
2023-01-17T09:57:50.587Z,4.70
2023-01-17T10:00:30.783Z,4.55
2023-01-17T10:03:01.909Z,4.57
2023-01-17T10:05:36.912Z,4.54
2023-01-17T10:08:47.111Z,4.50
2023-01-17T10:11:33.192Z,4.49
2023-01-17T10:14:36.421Z,4.49
2023-01-17T10:17:16.516Z,4.51
2023-01-17T10:20:13.278Z,4.46
2023-01-17T10:23:01.517Z,4.38
2023-01-17T10:25:45.199Z,4.46
2023-01-17T10:28:17.945Z,4.44
2023-01-17T10:30:53.165Z,4.36
2023-01-17T10:33:36.669Z,4.33
2023-01-17T10:36:26.239Z,4.36
2023-01-17T10:38:56.703Z,4.35
2023-01-17T10:41:41.002Z,4.43
2023-01-17T10:44:18.308Z,4.70
2023-01-17T10:47:12.570Z,4.59
2023-01-17T10:49:45.546Z,4.35
2023-01-17T10:52:37.520Z,4.37
2023-01-17T10:55:37.629Z,4.33
2023-01-17T10:58:15.214Z,4.22
2023-01-17T11:01:20.576Z,4.15
2023-01-17T11:03:55.033Z,4.12
2023-01-17T11:07:00.555Z,4.02
2023-01-17T11:09:40.891Z,3.99
2023-01-17T11:12:46.636Z,3.99
2023-01-17T11:15:39.744Z,3.96
2023-01-17T11:18:16.277Z,4.01
2023-01-17T11:20:48.427Z,3.98
2023-01-17T11:23:32.961Z,3.98
2023-01-17T11:26:06.330Z,3.89
2023-01-17T11:28:35.851Z,3.87
2023-01-17T11:31:26.557Z,3.69
2023-01-17T11:34:24.443Z,3.67
2023-01-17T11:37:17.852Z,3.48
2023-01-17T11:39:48.560Z,3.40
2023-01-17T11:42:44.964Z,3.37
2023-01-17T11:45:28.070Z,3.36
2023-01-17T11:48:08.011Z,3.23
2023-01-17T11:50:44.749Z,2.91
2023-01-17T11:53:17.264Z,2.75
2023-01-17T11:56:06.372Z,2.75
2023-01-17T11:58:39.349Z,2.80
2023-01-17T12:01:48.093Z,2.93
2023-01-17T12:04:28.187Z,2.99
2023-01-17T12:07:39.462Z,3.09
2023-01-17T12:10:30.584Z,3.11
2023-01-17T12:13:40.909Z,3.21
2023-01-17T12:16:33.007Z,3.49
2023-01-17T12:19:33.826Z,3.97
2023-01-17T12:22:26.746Z,4.48
2023-01-17T12:25:01.079Z,4.60
2023-01-17T12:27:56.043Z,4.47
2023-01-17T12:31:11.249Z,4.48
2023-01-17T12:34:07.118Z,4.25
2023-01-17T12:36:53.768Z,4.06
2023-01-17T12:39:27.982Z,3.96
2023-01-17T12:42:37.216Z,3.86
2023-01-17T12:45:09.708Z,3.73
2023-01-17T12:47:43.070Z,3.77
2023-01-17T12:50:22.804Z,3.81
2023-01-17T12:53:25.936Z,3.80
2023-01-17T12:56:16.902Z,3.78
2023-01-17T12:59:04.579Z,3.76
2023-01-17T13:01:40.077Z,3.76
2023-01-17T13:04:24.940Z,3.86
2023-01-17T13:07:01.180Z,3.87
2023-01-17T13:09:33.344Z,3.87
2023-01-17T13:12:04.949Z,3.83
2023-01-17T13:14:33.106Z,3.90
2023-01-17T13:17:35.382Z,3.94
2023-01-17T13:20:11.866Z,4.11
2023-01-17T13:22:40.460Z,4.28
2023-01-17T13:25:38.634Z,4.22
2023-01-17T13:28:13.908Z,4.19
2023-01-17T13:31:09.258Z,4.17
2023-01-17T13:34:00.469Z,4.50
2023-01-17T13:36:58.118Z,5.05
2023-01-17T13:39:33.359Z,5.42
2023-01-17T13:42:12.765Z,5.28
2023-01-17T13:44:40.565Z,5.13
2023-01-17T13:47:11.651Z,5.06
2023-01-17T13:49:39.258Z,4.98
2023-01-17T13:52:18.843Z,4.84
2023-01-17T13:54:53.160Z,4.69
2023-01-17T19:30:51.679Z,2.44
2023-01-17T21:01:48.579Z,1.89
2023-01-17T21:36:50.544Z,1.49
